Time;durP1;ratioP1;P1;durP2;ratioP2;P2;SDS_P1;SDS_P2;PMS_P1;PMS_P2;Temp;Humidity;BMP_temperature;BMP_pressure;BME280_temperature;BME280_humidity;BME280_pressure;Samples;Min_cycle;Max_cycle;Signal;HPM_P1;HPM_P2
2022/06/01 00:00:10;;;;;;;17.67;10.60;;;;;;;18.24;72.80;95390.88;4917817;29;20056;-81
2022/06/01 00:02:36;;;;;;;16.98;11.32;;;;;;;18.10;72.27;95375.72;4952820;29;20027;-82
2022/06/01 00:05:04;;;;;;;18.83;10.75;;;;;;;18.07;72.18;95354.91;4949882;29;20035;-82
2022/06/01 00:07:30;;;;;;;17.50;10.43;;;;;;;18.32;72.22;95395.47;4922957;28;20031;-82
2022/06/01 00:09:55;;;;;;;15.23;9.73;;;;;;;17.82;72.31;95323.50;4935055;29;20042;-82
2022/06/01 00:12:22;;;;;;;14.52;9.68;;;;;;;18.07;72.69;95362.16;4927926;29;20050;-82
2022/06/01 00:14:47;;;;;;;15.88;9.85;;;;;;;17.78;71.51;95329.78;4936128;29;20044;-82
2022/06/01 00:17:13;;;;;;;13.57;8.32;;;;;;;17.72;71.42;95321.09;4936140;29;20453;-82
2022/06/01 00:19:38;;;;;;;16.67;9.50;;;;;;;17.68;71.52;95314.81;4930218;29;20043;-82
2022/06/01 00:22:14;;;;;;;13.75;9.57;;;;;;;17.54;72.67;95304.22;4952577;28;20414;-82
2022/06/01 00:24:41;;;;;;;13.23;8.45;;;;;;;17.76;71.94;95338.16;4935183;29;20046;-82
2022/06/01 00:27:08;;;;;;;16.05;9.07;;;;;;;18.18;71.83;95397.53;4935313;29;20105;-81
2022/06/01 00:29:33;;;;;;;13.00;7.75;;;;;;;18.10;71.47;95396.41;4953019;28;20035;-82
2022/06/01 00:31:59;;;;;;;12.93;7.60;;;;;;;18.13;70.79;95398.47;4952304;29;20409;-82
2022/06/01 00:34:25;;;;;;;14.35;7.53;;;;;;;17.44;70.80;95311.75;4936909;29;20011;-81
2022/06/01 00:36:51;;;;;;;20.45;8.13;;;;;;;17.73;71.01;95360.25;4939850;29;20039;-81
2022/06/01 00:39:16;;;;;;;14.55;6.97;;;;;;;17.75;70.83;95355.38;4956564;29;20549;-82
2022/06/01 00:41:41;;;;;;;15.90;7.18;;;;;;;17.63;70.51;95337.19;4938977;29;20566;-81
2022/06/01 00:44:07;;;;;;;14.43;7.15;;;;;;;17.71;70.54;95349.81;4939567;29;20527;-81
2022/06/01 00:46:32;;;;;;;15.43;5.38;;;;;;;17.95;70.01;95394.19;4956289;29;20082;-82
2022/06/01 00:49:07;;;;;;;14.85;4.85;;;;;;;17.30;69.45;95279.72;4957001;29;20122;-81
2022/06/01 00:51:32;;;;;;;15.27;5.45;;;;;;;17.29;69.56;95284.28;4956305;29;20066;-81
2022/06/01 00:53:58;;;;;;;14.93;5.53;;;;;;;17.18;69.14;95280.31;4956314;29;20031;-81
2022/06/01 00:56:37;;;;;;;8.75;4.63;;;;;;;17.42;68.76;95317.41;4934896;29;20104;-82
2022/06/01 00:59:05;;;;;;;13.32;5.07;;;;;;;17.32;68.53;95336.47;4956198;29;20522;-82
2022/06/01 01:01:31;;;;;;;11.63;5.50;;;;;;;17.17;68.47;95313.56;4956146;28;20391;-82
2022/06/01 01:03:59;;;;;;;12.32;5.47;;;;;;;17.44;68.35;95341.25;4934551;29;20098;-82
2022/06/01 01:06:46;;;;;;;23.25;6.13;;;;;;;17.30;68.18;95309.19;4955788;29;20035;-82
2022/06/01 01:09:11;;;;;;;10.75;5.30;;;;;;;17.38;68.65;95318.38;4938269;29;20031;-81
2022/06/01 01:11:52;;;;;;;8.65;5.43;;;;;;;17.80;68.83;95381.22;4938535;28;20038;-81
2022/06/01 01:14:23;;;;;;;14.95;5.47;;;;;;;17.58;69.07;95356.09;4955973;29;20035;-82
2022/06/01 01:16:49;;;;;;;14.38;5.85;;;;;;;17.18;69.48;95331.22;4955824;29;20042;-82
2022/06/01 01:19:41;;;;;;;10.55;5.32;;;;;;;17.36;69.67;95373.06;4927063;29;20038;-82
2022/06/01 01:22:33;;;;;;;7.22;4.90;;;;;;;16.81;70.04;95280.84;4935308;29;20497;-81
2022/06/01 01:25:23;;;;;;;11.23;5.75;;;;;;;17.44;69.77;95357.31;4934636;29;20397;-82
2022/06/01 01:27:56;;;;;;;11.45;5.68;;;;;;;17.31;70.25;95343.75;4938352;28;20121;-82
2022/06/01 01:30:36;;;;;;;14.02;6.18;;;;;;;17.40;70.32;95359.03;4955208;29;20031;-82
2022/06/01 01:33:06;;;;;;;16.55;6.18;;;;;;;16.71;70.04;95235.59;4937868;29;20043;-82
2022/06/01 01:35:33;;;;;;;14.85;5.10;;;;;;;16.90;70.29;95266.38;4937852;29;20569;-81
2022/06/01 01:38:01;;;;;;;10.13;5.43;;;;;;;17.09;70.38;95298.25;4932907;29;20101;-81
2022/06/01 01:40:26;;;;;;;14.55;5.65;;;;;;;17.46;70.36;95353.25;4955835;29;20035;-82
2022/06/01 01:42:57;;;;;;;12.38;5.57;;;;;;;17.46;70.66;95353.25;4937677;29;20042;-82
2022/06/01 01:45:32;;;;;;;14.10;5.53;;;;;;;17.58;70.15;95347.25;4942344;28;20090;-82
2022/06/01 01:47:58;;;;;;;19.40;5.28;;;;;;;16.75;70.32;95229.31;4915464;29;20517;-82
2022/06/01 01:50:25;;;;;;;14.43;5.53;;;;;;;17.53;70.58;95353.56;4930899;29;20509;-82
2022/06/01 01:52:52;;;;;;;11.98;5.35;;;;;;;17.53;70.79;95342.84;4937919;29;20028;-81
2022/06/01 01:55:29;;;;;;;11.45;5.63;;;;;;;17.48;70.55;95352.91;4947650;29;20042;-81
2022/06/01 01:58:22;;;;;;;13.15;5.70;;;;;;;17.54;69.93;95352.47;4955976;29;20039;-82
2022/06/01 02:00:58;;;;;;;13.07;5.90;;;;;;;17.58;69.96;95357.97;4961408;29;20106;-82
2022/06/01 02:03:42;;;;;;;12.77;5.47;;;;;;;17.27;69.72;95312.50;4962433;29;20031;-82
2022/06/01 02:06:16;;;;;;;14.57;5.88;;;;;;;16.90;69.49;95268.28;4958165;29;20039;-81
2022/06/01 02:08:50;;;;;;;10.80;5.07;;;;;;;17.47;69.57;95359.41;4938906;29;20066;-82
2022/06/01 02:14:12;;;;;;;11.68;7.28;;;;;;;17.35;68.99;95352.72;4954759;29;20090;-81
2022/06/01 02:16:43;;;;;;;12.40;7.55;;;;;;;16.50;69.60;95270.13;4937998;29;20533;-81
2022/06/01 02:19:14;;;;;;;12.68;6.68;;;;;;;16.97;69.91;95344.41;4937930;29;20038;-82
2022/06/01 02:21:40;;;;;;;11.50;7.60;;;;;;;16.85;69.80;95335.38;4937914;29;20502;-81
2022/06/01 02:24:06;;;;;;;10.98;6.88;;;;;;;16.96;69.18;95342.81;4937851;29;20549;-82
2022/06/01 02:26:33;;;;;;;13.77;7.72;;;;;;;16.68;69.58;95297.81;4954306;29;20035;-81
2022/06/01 02:29:06;;;;;;;12.25;7.68;;;;;;;16.97;69.37;95340.94;4937937;29;20498;-82
2022/06/01 02:31:34;;;;;;;10.93;7.28;;;;;;;16.22;69.64;95234.72;4932131;29;20467;-82
2022/06/01 02:34:00;;;;;;;15.52;7.97;;;;;;;16.26;69.45;95254.41;4954555;29;20078;-81
2022/06/01 02:36:26;;;;;;;10.52;6.95;;;;;;;16.66;69.67;95318.75;4954356;29;20597;-82
2022/06/01 02:38:55;;;;;;;10.75;7.72;;;;;;;16.81;70.10;95345.91;4954895;29;20466;-82
2022/06/01 02:44:05;;;;;;;10.90;7.32;;;;;;;16.08;69.66;95228.69;4942437;29;20070;-81
2022/06/01 02:46:31;;;;;;;9.35;6.82;;;;;;;16.50;69.49;95304.94;4953270;29;20040;-81
2022/06/01 02:48:56;;;;;;;14.77;6.75;;;;;;;16.52;69.81;95308.88;4954712;29;20039;-82
2022/06/01 02:51:22;;;;;;;9.82;7.00;;;;;;;16.60;69.57;95318.06;4932306;29;20034;-82
2022/06/01 02:53:48;;;;;;;12.15;6.63;;;;;;;16.77;69.81;95344.16;4954114;29;20443;-81
2022/06/01 02:56:15;;;;;;;12.45;7.43;;;;;;;16.89;70.07;95382.66;4933712;29;20482;-82
2022/06/01 02:58:40;;;;;;;15.70;6.72;;;;;;;16.78;70.00;95362.59;4942947;29;20461;-81
2022/06/01 03:01:06;;;;;;;14.73;7.25;;;;;;;16.49;70.02;95308.69;4937028;29;20046;-81
2022/06/01 03:03:34;;;;;;;15.23;6.55;;;;;;;16.77;70.39;95370.94;4937589;28;20517;-81
2022/06/01 03:05:59;;;;;;;14.18;7.15;;;;;;;15.78;70.51;95219.53;4949788;29;20047;-82
2022/06/01 03:08:25;;;;;;;15.52;6.28;;;;;;;16.13;70.82;95287.41;4949860;29;20035;-82
2022/06/01 03:10:51;;;;;;;15.80;6.97;;;;;;;16.00;70.38;95278.38;4936964;29;20045;-81
2022/06/01 03:13:17;;;;;;;12.20;6.18;;;;;;;16.24;70.04;95312.81;4936801;29;20058;-82
2022/06/01 03:15:42;;;;;;;14.20;6.68;;;;;;;16.15;70.23;95306.63;4954242;29;20495;-82
2022/06/01 03:18:08;;;;;;;8.27;5.35;;;;;;;16.46;69.99;95350.28;4953417;28;20137;-82
2022/06/01 03:20:34;;;;;;;9.65;5.65;;;;;;;16.11;70.08;95314.47;4954041;29;20038;-81
2022/06/01 03:23:00;;;;;;;13.93;6.03;;;;;;;16.62;70.29;95404.25;4936866;29;20043;-82
2022/06/01 03:25:28;;;;;;;8.55;5.07;;;;;;;16.38;69.93;95359.03;4954437;29;20110;-81
2022/06/01 03:27:57;;;;;;;11.40;5.40;;;;;;;16.39;69.97;95360.63;4953730;29;20049;-81
2022/06/01 03:30:23;;;;;;;17.75;5.93;;;;;;;16.01;70.04;95296.00;4936275;29;20042;-82
2022/06/01 03:32:52;;;;;;;11.90;5.28;;;;;;;16.59;69.87;95370.03;4937001;29;20039;-81
2022/06/01 03:35:21;;;;;;;9.43;5.70;;;;;;;16.70;69.90;95394.69;4936355;29;20126;-82
2022/06/01 03:37:47;;;;;;;13.23;6.47;;;;;;;16.07;69.95;95288.63;4927156;29;20043;-81
2022/06/01 03:40:15;;;;;;;14.18;5.88;;;;;;;16.65;69.78;95370.72;4918464;29;20043;-82
2022/06/01 03:42:40;;;;;;;19.20;6.57;;;;;;;16.02;69.52;95270.03;4929602;29;20050;-82
2022/06/01 03:47:51;;;;;;;15.48;6.15;;;;;;;15.70;69.78;95229.06;4953090;29;20125;-82
2022/06/01 03:50:17;;;;;;;11.32;5.97;;;;;;;16.07;69.90;95284.06;4936195;29;20490;-81
2022/06/01 03:52:45;;;;;;;10.40;5.38;;;;;;;16.12;70.04;95291.97;4936063;29;20668;-81
2022/06/01 03:55:12;;;;;;;15.43;5.75;;;;;;;16.94;70.01;95411.19;4953229;29;20039;-81
2022/06/01 03:57:38;;;;;;;14.52;5.75;;;;;;;16.39;69.71;95317.81;4935611;29;20126;-81
2022/06/01 04:00:09;;;;;;;15.75;6.18;;;;;;;16.80;69.38;95381.03;4936117;29;20083;-82
2022/06/01 04:02:36;;;;;;;13.70;5.47;;;;;;;17.04;68.99;95402.09;4930257;29;20078;-82
2022/06/01 04:05:02;;;;;;;13.80;5.63;;;;;;;17.06;68.77;95402.59;4945348;29;20035;-81
2022/06/01 04:07:28;;;;;;;16.15;5.40;;;;;;;16.74;68.65;95358.16;4952241;29;20039;-82
2022/06/01 04:09:53;;;;;;;6.32;5.43;;;;;;;17.15;68.54;95414.94;4950715;28;20039;-82
2022/06/01 04:12:19;;;;;;;10.50;5.32;;;;;;;17.09;68.47;95426.13;4931392;29;20051;-82
2022/06/01 04:14:44;;;;;;;21.13;5.40;;;;;;;16.56;68.65;95323.22;4929401;29;20067;-82
2022/06/01 04:17:10;;;;;;;12.27;5.07;;;;;;;17.14;68.63;95423.28;4933500;29;20027;-82
2022/06/01 04:19:35;;;;;;;18.27;6.03;;;;;;;17.22;68.58;95414.50;4934938;29;20107;-81
2022/06/01 04:22:01;;;;;;;13.57;5.88;;;;;;;17.22;69.12;95422.53;4943625;29;20031;-82
2022/06/01 04:24:31;;;;;;;15.23;7.30;;;;;;;16.38;69.21;95285.97;4921784;29;20042;-82
2022/06/01 04:26:56;;;;;;;19.65;7.03;;;;;;;17.29;69.29;95410.28;4924014;29;20031;-82
2022/06/01 04:29:22;;;;;;;21.45;7.40;;;;;;;16.90;69.76;95345.94;4944336;29;20067;-82
2022/06/01 04:31:48;;;;;;;22.23;7.43;;;;;;;16.72;69.21;95320.97;4919046;29;20118;-82
2022/06/01 04:34:16;;;;;;;15.13;6.75;;;;;;;16.35;69.27;95287.38;4914510;29;20550;-82
2022/06/01 04:36:41;;;;;;;13.55;6.78;;;;;;;16.77;69.22;95339.59;4914675;29;20031;-82
2022/06/01 04:39:07;;;;;;;22.42;8.15;;;;;;;16.55;69.28;95296.78;4918076;29;20027;-83
2022/06/01 04:41:33;;;;;;;28.77;9.57;;;;;;;16.92;69.67;95363.31;4921083;29;20036;-82
2022/06/01 04:43:59;;;;;;;26.52;11.88;;;;;;;16.94;70.39;95384.41;4916971;29;20050;-82
2022/06/01 04:46:24;;;;;;;27.30;13.27;;;;;;;16.26;69.99;95275.03;4902106;29;20098;-82
2022/06/01 04:48:50;;;;;;;28.52;13.43;;;;;;;17.12;69.95;95375.34;4931498;29;20315;-82
2022/06/01 04:51:15;;;;;;;30.02;14.82;;;;;;;17.45;69.63;95417.91;4938659;29;20391;-82
2022/06/01 04:53:44;;;;;;;24.42;13.55;;;;;;;17.53;69.68;95428.66;4919268;28;20051;-83
2022/06/01 04:56:13;;;;;;;30.27;14.20;;;;;;;16.83;69.80;95311.59;4917335;29;20035;-82
2022/06/01 04:58:39;;;;;;;28.05;14.23;;;;;;;17.47;69.76;95404.97;4912739;29;20408;-83
2022/06/01 05:01:05;;;;;;;25.23;13.50;;;;;;;16.65;69.49;95277.78;4933010;29;20104;-82
2022/06/01 05:03:30;;;;;;;33.45;16.08;;;;;;;17.43;68.97;95402.09;4917430;29;20043;-82
2022/06/01 05:05:55;;;;;;;26.33;14.75;;;;;;;16.57;69.61;95275.81;4923843;29;20118;-82
2022/06/01 05:08:21;;;;;;;21.98;14.52;;;;;;;17.21;69.27;95373.50;4919399;29;20113;-83
2022/06/01 05:10:46;;;;;;;29.83;13.75;;;;;;;17.60;68.51;95422.81;4910714;29;20055;-83
2022/06/01 05:13:12;;;;;;;28.20;13.70;;;;;;;17.45;68.97;95391.88;4940740;29;20106;-83
2022/06/01 05:15:59;;;;;;;23.02;13.15;;;;;;;17.33;69.36;95397.81;4928232;29;20106;-83
2022/06/01 05:18:25;;;;;;;29.15;14.45;;;;;;;17.69;69.13;95434.41;4932708;29;20330;-83
2022/06/01 05:20:53;;;;;;;27.95;14.35;;;;;;;17.72;69.05;95439.91;4935397;28;20047;-83
2022/06/01 05:23:19;;;;;;;23.55;12.90;;;;;;;17.41;68.40;95398.16;4933653;29;20035;-84
2022/06/01 05:25:46;;;;;;;20.77;13.65;;;;;;;17.61;68.45;95446.69;4907382;29;20032;-84
2022/06/01 05:28:15;;;;;;;27.48;13.13;;;;;;;17.04;68.86;95370.75;4912890;29;20557;-83
2022/06/01 05:30:41;;;;;;;25.17;12.90;;;;;;;17.15;69.11;95363.25;4903823;29;20083;-83
2022/06/01 05:33:07;;;;;;;24.55;12.13;;;;;;;16.80;68.35;95276.56;4921416;29;20517;-82
2022/06/01 05:35:32;;;;;;;23.25;12.32;;;;;;;17.24;69.17;95347.97;4938180;29;20500;-83
2022/06/01 05:37:58;;;;;;;27.73;13.00;;;;;;;17.21;68.31;95325.25;4920205;29;20035;-83
2022/06/01 05:40:25;;;;;;;33.17;14.38;;;;;;;17.98;68.23;95425.78;4913904;29;20031;-83
2022/06/01 05:42:51;;;;;;;25.42;12.65;;;;;;;17.77;68.83;95404.13;4916373;29;20035;-83
2022/06/01 05:45:16;;;;;;;21.50;13.05;;;;;;;17.58;68.43;95341.91;4931162;29;20065;-84
2022/06/01 05:47:42;;;;;;;38.25;14.23;;;;;;;17.84;68.00;95374.16;4936164;28;20468;-83
2022/06/01 05:50:08;;;;;;;24.75;14.02;;;;;;;17.26;67.74;95292.94;4910343;29;21192;-84
2022/06/01 05:52:38;;;;;;;25.02;13.07;;;;;;;18.07;67.60;95389.00;4929941;29;20505;-83
2022/06/01 05:55:05;;;;;;;24.77;13.00;;;;;;;17.60;67.75;95297.59;4912668;29;20042;-83
2022/06/01 05:57:31;;;;;;;29.60;13.32;;;;;;;18.42;67.32;95411.25;4913729;29;20528;-84
2022/06/01 05:59:56;;;;;;;29.23;13.40;;;;;;;18.51;67.43;95412.84;4919935;29;20063;-84
2022/06/01 06:02:25;;;;;;;29.20;13.32;;;;;;;18.13;67.19;95345.59;4914953;29;20046;-84
2022/06/01 06:04:50;;;;;;;34.47;14.57;;;;;;;18.42;67.23;95384.41;4930146;29;20031;-85
2022/06/01 06:07:16;;;;;;;30.77;15.00;;;;;;;17.66;66.86;95258.00;4929999;29;20040;-84
2022/06/01 06:09:41;;;;;;;33.90;14.98;;;;;;;17.96;66.80;95296.50;4923528;29;20578;-84
2022/06/01 06:12:08;;;;;;;44.38;15.35;;;;;;;18.37;66.75;95358.53;4926178;29;20118;-83
2022/06/01 06:14:33;;;;;;;35.97;16.23;;;;;;;18.31;67.10;95351.72;4910002;29;20130;-83
2022/06/01 06:16:59;;;;;;;42.17;19.05;;;;;;;18.63;67.94;95424.84;4908373;29;20154;-83
2022/06/01 06:19:24;;;;;;;30.88;16.77;;;;;;;16.29;68.50;95087.13;4931802;29;20039;-84
2022/06/01 06:21:50;;;;;;;36.95;18.17;;;;;;;18.57;69.05;95418.88;4904459;29;20538;-83
2022/06/01 06:24:18;;;;;;;36.80;18.88;;;;;;;18.21;68.56;95386.97;4931351;29;20035;-84
2022/06/01 06:26:45;;;;;;;37.75;17.45;;;;;;;18.22;68.87;95380.47;4932556;29;20520;-84
2022/06/01 06:29:13;;;;;;;35.17;17.52;;;;;;;18.52;68.30;95392.94;4925125;29;20039;-84
2022/06/01 06:31:39;;;;;;;26.33;16.60;;;;;;;18.30;68.06;95347.47;4922615;28;20549;-85
2022/06/01 06:34:05;;;;;;;45.78;18.00;;;;;;;16.36;67.48;95023.22;4924344;29;20066;-85
2022/06/01 06:36:31;;;;;;;33.30;16.92;;;;;;;17.96;68.99;95321.44;4912120;29;20118;-85
2022/06/01 06:38:56;;;;;;;37.03;17.52;;;;;;;17.65;68.91;95272.50;4930636;29;20433;-86
2022/06/01 06:41:23;;;;;;;32.72;17.50;;;;;;;17.72;68.75;95260.22;4916832;29;20054;-85
2022/06/01 06:43:49;;;;;;;32.40;17.77;;;;;;;17.80;68.90;95290.81;4920254;29;20031;-84
2022/06/01 06:46:18;;;;;;;33.65;17.73;;;;;;;18.21;69.01;95345.91;4906887;29;20058;-85
2022/06/01 06:48:48;;;;;;;44.15;18.73;;;;;;;17.50;68.75;95214.75;4911013;29;20043;-86
2022/06/01 06:51:14;;;;;;;30.63;17.75;;;;;;;18.37;68.27;95353.16;4927442;29;20024;-83
2022/06/01 06:53:39;;;;;;;31.17;18.02;;;;;;;18.65;67.84;95366.22;4931013;29;20036;-84
2022/06/01 06:56:06;;;;;;;29.88;17.98;;;;;;;18.92;67.88;95381.19;4925457;29;20445;-84
2022/06/01 06:58:32;;;;;;;32.85;17.50;;;;;;;18.69;68.34;95330.34;4926559;29;20039;-85
2022/06/01 07:00:57;;;;;;;37.03;17.27;;;;;;;18.60;68.21;95324.22;4910672;29;20549;-84
2022/06/01 07:03:23;;;;;;;30.88;17.17;;;;;;;18.73;67.90;95343.94;4919562;29;20042;-84
2022/06/01 07:08:34;;;;;;;37.65;17.80;;;;;;;18.96;67.89;95356.03;4933367;29;20046;-83
2022/06/01 07:11:01;;;;;;;32.38;16.50;;;;;;;19.28;67.29;95378.84;4913253;29;20813;-83
2022/06/01 07:13:29;;;;;;;31.98;16.42;;;;;;;19.48;67.43;95398.84;4932979;29;20128;-83
2022/06/01 07:16:14;;;;;;;32.38;17.55;;;;;;;19.06;66.95;95320.75;4931690;29;20032;-83
2022/06/01 07:18:43;;;;;;;33.35;17.17;;;;;;;19.21;66.58;95320.19;4912508;29;20036;-83
2022/06/01 07:21:09;;;;;;;27.35;15.95;;;;;;;19.70;66.64;95393.19;4931382;29;20151;-83
2022/06/01 07:23:39;;;;;;;32.40;17.52;;;;;;;18.83;66.85;95274.53;4906831;29;20023;-83
2022/06/01 07:26:11;;;;;;;35.90;17.55;;;;;;;19.58;66.38;95396.59;4913433;29;20043;-83
2022/06/01 07:28:37;;;;;;;43.50;17.20;;;;;;;19.09;66.72;95314.69;4908409;29;20032;-83
2022/06/01 07:31:04;;;;;;;30.67;15.82;;;;;;;19.55;67.55;95383.00;4907891;29;20040;-83
2022/06/01 07:33:30;;;;;;;37.08;16.42;;;;;;;19.47;67.82;95365.00;4912826;29;20028;-83
2022/06/01 07:35:57;;;;;;;28.77;16.15;;;;;;;19.20;67.45;95336.66;4911940;29;20249;-83
2022/06/01 07:44:00;;;;;;;28.42;16.73;;;;;;;19.62;67.80;95384.06;4927862;29;20046;-82
2022/06/01 07:46:25;;;;;;;35.53;16.92;;;;;;;19.18;67.27;95307.38;4929611;29;20478;-83
2022/06/01 07:48:52;;;;;;;33.42;16.27;;;;;;;19.72;67.02;95371.34;4908029;29;20039;-83
2022/06/01 07:51:18;;;;;;;37.90;14.50;;;;;;;19.47;66.62;95321.97;4912644;29;20086;-83
2022/06/01 07:53:44;;;;;;;23.75;14.93;;;;;;;19.95;67.25;95380.69;4929217;29;20060;-82
2022/06/01 07:56:09;;;;;;;23.23;14.15;;;;;;;19.96;67.44;95380.38;4909106;29;20058;-83
2022/06/01 07:58:36;;;;;;;27.85;14.45;;;;;;;19.69;67.46;95305.50;4919683;29;20608;-82
2022/06/01 08:01:01;;;;;;;27.83;13.85;;;;;;;19.97;68.05;95362.31;4921919;29;20562;-84
2022/06/01 08:03:28;;;;;;;28.10;13.90;;;;;;;20.13;67.92;95389.44;4915943;29;20032;-82
2022/06/01 08:05:53;;;;;;;30.48;13.80;;;;;;;20.25;66.58;95379.50;4924119;29;20431;-83
2022/06/01 08:08:19;;;;;;;27.83;13.48;;;;;;;19.89;67.17;95325.50;4918145;29;20127;-83
2022/06/01 08:10:44;;;;;;;25.42;14.48;;;;;;;20.22;66.79;95347.06;4928607;29;20097;-82
2022/06/01 08:13:12;;;;;;;27.52;13.93;;;;;;;20.29;65.46;95348.09;4931865;29;20046;-82
2022/06/01 08:15:43;;;;;;;21.50;13.32;;;;;;;19.93;64.88;95273.34;4923908;29;20035;-82
2022/06/01 08:18:11;;;;;;;25.70;13.68;;;;;;;20.71;65.78;95381.19;4926361;29;20044;-83
2022/06/01 08:20:40;;;;;;;27.38;15.02;;;;;;;20.10;67.36;95290.47;4927220;29;20049;-82
2022/06/01 08:23:06;;;;;;;25.15;12.70;;;;;;;20.66;66.15;95377.91;4911781;29;20585;-82
2022/06/01 08:25:33;;;;;;;26.25;12.45;;;;;;;19.90;63.46;95257.09;4927389;29;20035;-82
2022/06/01 08:28:01;;;;;;;27.27;11.90;;;;;;;20.02;63.18;95289.44;4931407;29;20542;-82
2022/06/01 08:30:29;;;;;;;21.88;12.40;;;;;;;20.77;63.53;95377.16;4907348;29;20035;-82
2022/06/01 08:32:58;;;;;;;28.90;13.40;;;;;;;20.69;63.30;95340.28;4910229;29;20190;-82
2022/06/01 08:35:28;;;;;;;28.67;13.82;;;;;;;20.56;62.55;95327.91;4922507;29;20130;-81
2022/06/01 08:37:54;;;;;;;22.80;13.23;;;;;;;21.02;62.73;95367.22;4920947;29;21344;-83
2022/06/01 08:40:27;;;;;;;29.83;13.38;;;;;;;20.95;62.92;95374.28;4928703;29;20327;-82
2022/06/01 08:43:01;;;;;;;23.50;13.45;;;;;;;20.67;62.25;95314.81;4906859;29;20135;-83
2022/06/01 08:45:27;;;;;;;26.77;13.13;;;;;;;20.12;62.35;95208.25;4907125;29;20130;-82
2022/06/01 08:47:53;;;;;;;28.23;14.20;;;;;;;21.16;61.68;95369.59;4918661;29;20043;-82
2022/06/01 08:50:30;;;;;;;25.17;12.32;;;;;;;21.25;61.32;95364.13;4905341;29;20110;-82
2022/06/01 08:53:01;;;;;;;25.05;11.98;;;;;;;20.66;61.80;95268.22;4897268;29;20138;-83
2022/06/01 08:55:43;;;;;;;25.55;11.35;;;;;;;21.28;60.86;95366.16;4930681;28;20462;-83
2022/06/01 08:58:18;;;;;;;23.52;10.90;;;;;;;21.44;60.96;95361.63;4934121;29;20049;-83
2022/06/01 09:01:00;;;;;;;22.98;10.93;;;;;;;21.57;59.73;95371.31;4931657;29;20054;-83
2022/06/01 09:03:42;;;;;;;21.70;9.82;;;;;;;21.25;58.66;95332.53;4925546;29;20034;-83
2022/06/01 09:06:14;;;;;;;19.25;9.65;;;;;;;21.61;58.54;95366.81;4920807;29;20044;-83
2022/06/01 09:08:46;;;;;;;20.88;8.52;;;;;;;21.58;59.25;95326.25;4915064;29;20529;-83
2022/06/01 09:11:13;;;;;;;;;;;;;;;21.85;59.26;95361.38;4929609;29;20107;-84
2022/06/01 09:13:59;;;;;;;19.58;10.68;;;;;;;21.95;59.87;95355.53;4931042;29;22643;-84
2022/06/01 09:16:28;;;;;;;21.13;11.50;;;;;;;22.01;60.00;95363.41;4931726;29;20380;-84
2022/06/01 09:18:55;;;;;;;28.75;10.27;;;;;;;21.62;58.80;95298.22;4914027;29;20047;-84
2022/06/01 09:24:15;;;;;;;20.75;8.02;;;;;;;21.47;58.83;95248.44;4925091;29;20058;-83
2022/06/01 09:27:04;;;;;;;21.20;8.60;;;;;;;21.81;57.69;95273.34;4931970;29;20496;-83
2022/06/01 09:29:32;;;;;;;15.95;7.32;;;;;;;21.88;57.07;95289.72;4915688;29;20054;-82
2022/06/01 09:32:05;;;;;;;20.40;7.65;;;;;;;21.87;55.38;95263.88;4930989;29;20077;-83
2022/06/01 09:34:37;;;;;;;19.88;7.88;;;;;;;22.44;56.83;95346.50;4922271;29;20058;-84
2022/06/01 09:37:32;;;;;;;18.67;7.95;;;;;;;22.56;59.40;95344.53;4916208;29;20032;-84
2022/06/01 09:40:01;;;;;;;20.60;6.63;;;;;;;22.73;56.90;95340.75;4903100;29;20517;-83
2022/06/01 09:42:35;;;;;;;16.25;8.23;;;;;;;23.15;56.19;95340.28;4915554;29;20465;-84
2022/06/01 09:45:04;;;;;;;13.32;6.82;;;;;;;23.71;54.55;95297.53;4931020;28;20438;-83
2022/06/01 09:47:40;;;;;;;16.45;6.32;;;;;;;24.71;51.35;95297.63;4919064;29;20040;-83
2022/06/01 09:50:34;;;;;;;12.20;5.32;;;;;;;25.67;45.45;95270.09;4934748;29;21314;-83
2022/06/01 09:53:19;;;;;;;14.98;4.82;;;;;;;26.68;41.76;95277.16;4931063;29;20054;-83
2022/06/01 09:55:55;;;;;;;17.40;4.72;;;;;;;27.23;39.70;95211.94;4916001;29;20503;-83
2022/06/01 10:07:46;;;;;;;18.60;3.92;;;;;;;30.76;31.11;95288.28;4908509;29;20049;-84
2022/06/01 10:10:26;;;;;;;11.80;3.63;;;;;;;31.49;30.76;95279.97;4892755;29;20189;-85
2022/06/01 10:12:58;;;;;;;7.22;4.15;;;;;;;31.86;32.08;95273.75;4902809;29;20031;-84
2022/06/01 10:15:30;;;;;;;10.43;3.85;;;;;;;32.51;30.11;95324.75;4897244;29;20135;-84
2022/06/01 10:18:05;;;;;;;7.85;3.80;;;;;;;32.44;28.31;95243.28;4909707;29;21554;-84
2022/06/01 10:20:44;;;;;;;8.48;3.50;;;;;;;33.20;26.71;95321.50;4904887;29;20036;-84
2022/06/01 10:23:18;;;;;;;10.18;3.88;;;;;;;33.39;27.62;95324.75;4903295;29;20464;-84
2022/06/01 10:25:47;;;;;;;12.80;3.75;;;;;;;33.66;27.16;95312.50;4911958;29;20064;-84
2022/06/01 10:28:20;;;;;;;9.27;3.28;;;;;;;33.84;26.39;95316.94;4902058;29;20578;-83
2022/06/01 10:30:58;;;;;;;8.95;3.00;;;;;;;32.96;25.15;95231.94;4903774;29;20043;-83
2022/06/01 10:33:46;;;;;;;10.75;3.40;;;;;;;32.62;24.71;95283.44;4894552;29;20043;-83
2022/06/01 10:36:34;;;;;;;7.70;2.80;;;;;;;32.46;24.70;95212.66;4907674;29;20032;-84
2022/06/01 10:39:07;;;;;;;7.72;2.83;;;;;;;32.69;23.94;95211.97;4898078;29;20082;-83
2022/06/01 10:41:43;;;;;;;7.18;2.80;;;;;;;33.17;28.04;95307.78;4916031;29;20043;-83
2022/06/01 10:44:25;;;;;;;9.77;2.63;;;;;;;33.19;27.22;95297.91;4914115;29;20474;-84
2022/06/01 10:46:57;;;;;;;7.15;2.58;;;;;;;32.84;26.57;95233.31;4911528;29;20051;-84
2022/06/01 10:49:41;;;;;;;12.75;3.17;;;;;;;33.21;24.49;95311.28;4902829;29;20594;-84
2022/06/01 10:52:29;;;;;;;11.15;3.17;;;;;;;33.09;24.42;95304.38;4916529;29;20095;-83
2022/06/01 10:55:07;;;;;;;9.52;2.42;;;;;;;32.79;24.65;95236.53;4895075;29;20040;-83
2022/06/01 10:57:36;;;;;;;9.73;2.90;;;;;;;32.21;23.99;95210.25;4919543;29;20028;-84
2022/06/01 11:00:06;;;;;;;8.93;3.10;;;;;;;32.92;24.14;95253.22;4935894;28;20052;-84
2022/06/01 11:02:55;;;;;;;7.40;2.70;;;;;;;32.74;24.21;95294.66;4926487;29;20062;-83
2022/06/01 11:05:31;;;;;;;11.63;3.33;;;;;;;33.08;25.56;95291.81;4916290;29;20074;-83
2022/06/01 11:08:22;;;;;;;9.95;2.65;;;;;;;33.43;23.98;95285.00;4934665;29;20038;-84
2022/06/01 11:11:08;;;;;;;5.75;2.97;;;;;;;33.48;23.41;95294.75;4910120;29;20047;-83
2022/06/01 11:13:54;;;;;;;8.98;2.95;;;;;;;32.86;24.15;95257.63;4938174;29;20043;-83
2022/06/01 11:17:03;;;;;;;7.03;2.92;;;;;;;33.20;23.84;95272.03;4922669;29;20121;-83
2022/06/01 11:20:03;;;;;;;6.57;2.67;;;;;;;33.75;24.65;95292.72;4902191;29;20046;-82
2022/06/01 11:22:50;;;;;;;7.65;2.90;;;;;;;33.88;24.71;95287.38;4933094;29;20122;-84
2022/06/01 11:25:29;;;;;;;7.55;2.33;;;;;;;33.72;24.56;95231.09;4941289;29;20035;-83
2022/06/01 11:27:55;;;;;;;4.97;2.42;;;;;;;34.14;23.36;95274.72;4918083;29;20242;-83
2022/06/01 11:30:24;;;;;;;12.90;2.83;;;;;;;34.26;23.55;95241.84;4924340;29;20046;-83
2022/06/01 11:33:15;;;;;;;12.50;2.28;;;;;;;34.21;23.65;95271.81;4917387;29;20055;-83
2022/06/01 11:35:43;;;;;;;;;;;;;;;34.61;23.70;95270.63;4926636;29;20035;-83
2022/06/01 11:38:17;;;;;;;9.48;2.33;;;;;;;34.43;21.40;95237.94;4932322;29;19930;-83
2022/06/01 11:41:22;;;;;;;9.40;3.08;;;;;;;34.92;21.97;95253.84;4944339;29;20038;-84
2022/06/01 11:43:55;;;;;;;8.10;3.03;;;;;;;34.90;20.84;95262.53;4909512;29;20522;-83
2022/06/01 11:46:46;;;;;;;10.52;2.58;;;;;;;34.27;21.44;95218.63;4934346;29;20075;-84
2022/06/01 11:50:00;;;;;;;7.20;2.47;;;;;;;34.60;21.67;95216.75;4928274;29;20039;-83
2022/06/01 11:52:32;;;;;;;9.43;2.78;;;;;;;34.81;21.31;95262.34;4907283;29;20687;-83
2022/06/01 11:55:21;;;;;;;9.05;2.45;;;;;;;34.92;23.89;95251.06;4914526;29;20350;-83
2022/06/01 11:58:03;;;;;;;7.95;2.13;;;;;;;34.13;23.78;95199.63;4912481;29;20531;-84
2022/06/01 12:00:32;;;;;;;10.68;3.00;;;;;;;34.61;23.20;95262.34;4931648;29;20092;-83
2022/06/01 12:03:20;;;;;;;8.52;2.53;;;;;;;34.24;23.98;95238.75;4927551;29;20117;-83
2022/06/01 12:06:46;;;;;;;13.80;3.80;;;;;;;34.64;23.42;95242.22;4938770;29;20059;-82
2022/06/01 12:09:23;;;;;;;12.77;2.35;;;;;;;33.73;20.13;95171.34;4868075;29;20089;-83